sensor_id;sensor_type;location;lat;lon;timestamp;P1;durP1;ratioP1;P2;durP2;ratioP2
70725;SDS011;58304;53.104;6.022;2022-12-10T00:01:41;29.52;;;9.60;;
70725;SDS011;58304;53.104;6.022;2022-12-10T00:04:08;29.65;;;10.18;;
70725;SDS011;58304;53.104;6.022;2022-12-10T00:06:35;29.33;;;10.23;;
70725;SDS011;58304;53.104;6.022;2022-12-10T00:09:03;22.58;;;8.20;;
70725;SDS011;58304;53.104;6.022;2022-12-10T00:11:30;26.52;;;8.82;;
70725;SDS011;58304;53.104;6.022;2022-12-10T00:13:56;26.98;;;8.00;;
70725;SDS011;58304;53.104;6.022;2022-12-10T00:18:49;30.10;;;10.25;;
70725;SDS011;58304;53.104;6.022;2022-12-10T00:21:19;25.05;;;8.93;;
70725;SDS011;58304;53.104;6.022;2022-12-10T00:23:46;32.47;;;9.60;;
70725;SDS011;58304;53.104;6.022;2022-12-10T00:26:16;28.80;;;8.88;;
70725;SDS011;58304;53.104;6.022;2022-12-10T00:28:44;30.77;;;9.52;;
70725;SDS011;58304;53.104;6.022;2022-12-10T00:31:15;25.00;;;8.70;;
70725;SDS011;58304;53.104;6.022;2022-12-10T00:33:46;26.40;;;10.53;;
70725;SDS011;58304;53.104;6.022;2022-12-10T00:36:13;26.75;;;10.02;;
70725;SDS011;58304;53.104;6.022;2022-12-10T00:38:41;33.08;;;10.52;;
70725;SDS011;58304;53.104;6.022;2022-12-10T00:41:08;27.63;;;9.63;;
70725;SDS011;58304;53.104;6.022;2022-12-10T00:43:34;27.92;;;9.55;;
70725;SDS011;58304;53.104;6.022;2022-12-10T00:46:00;32.55;;;10.13;;
70725;SDS011;58304;53.104;6.022;2022-12-10T00:48:26;29.15;;;9.90;;
70725;SDS011;58304;53.104;6.022;2022-12-10T00:51:00;23.98;;;8.55;;
70725;SDS011;58304;53.104;6.022;2022-12-10T00:53:31;27.08;;;9.32;;
70725;SDS011;58304;53.104;6.022;2022-12-10T00:55:57;29.15;;;8.68;;
70725;SDS011;58304;53.104;6.022;2022-12-10T00:58:26;29.20;;;9.70;;
70725;SDS011;58304;53.104;6.022;2022-12-10T01:00:53;25.65;;;8.85;;
70725;SDS011;58304;53.104;6.022;2022-12-10T01:03:19;29.02;;;9.00;;
70725;SDS011;58304;53.104;6.022;2022-12-10T01:05:45;27.25;;;9.35;;
70725;SDS011;58304;53.104;6.022;2022-12-10T01:08:11;27.80;;;9.20;;
70725;SDS011;58304;53.104;6.022;2022-12-10T01:10:36;24.08;;;8.05;;
70725;SDS011;58304;53.104;6.022;2022-12-10T01:13:02;31.70;;;10.05;;
70725;SDS011;58304;53.104;6.022;2022-12-10T01:15:28;26.27;;;9.50;;
70725;SDS011;58304;53.104;6.022;2022-12-10T01:17:54;27.02;;;8.68;;
70725;SDS011;58304;53.104;6.022;2022-12-10T01:20:20;26.58;;;8.45;;
70725;SDS011;58304;53.104;6.022;2022-12-10T01:22:45;30.63;;;10.20;;
70725;SDS011;58304;53.104;6.022;2022-12-10T01:25:11;30.73;;;9.73;;
70725;SDS011;58304;53.104;6.022;2022-12-10T01:27:36;30.45;;;9.88;;
70725;SDS011;58304;53.104;6.022;2022-12-10T01:30:02;27.90;;;9.70;;
70725;SDS011;58304;53.104;6.022;2022-12-10T01:32:28;28.65;;;9.40;;
70725;SDS011;58304;53.104;6.022;2022-12-10T01:34:54;30.60;;;8.93;;
70725;SDS011;58304;53.104;6.022;2022-12-10T01:37:19;28.42;;;8.50;;
70725;SDS011;58304;53.104;6.022;2022-12-10T01:39:45;25.95;;;8.27;;
70725;SDS011;58304;53.104;6.022;2022-12-10T01:42:11;26.08;;;8.63;;
70725;SDS011;58304;53.104;6.022;2022-12-10T01:47:07;29.08;;;10.07;;
70725;SDS011;58304;53.104;6.022;2022-12-10T01:49:34;24.85;;;8.23;;
70725;SDS011;58304;53.104;6.022;2022-12-10T01:52:02;29.90;;;9.70;;
70725;SDS011;58304;53.104;6.022;2022-12-10T01:54:31;25.63;;;8.85;;
70725;SDS011;58304;53.104;6.022;2022-12-10T01:56:59;27.63;;;9.38;;
70725;SDS011;58304;53.104;6.022;2022-12-10T01:59:27;27.92;;;9.05;;
70725;SDS011;58304;53.104;6.022;2022-12-10T02:01:58;28.55;;;9.85;;
70725;SDS011;58304;53.104;6.022;2022-12-10T02:07:09;30.83;;;10.18;;
70725;SDS011;58304;53.104;6.022;2022-12-10T02:10:02;26.00;;;9.68;;
70725;SDS011;58304;53.104;6.022;2022-12-10T02:15:22;36.63;;;10.25;;
70725;SDS011;58304;53.104;6.022;2022-12-10T02:17:55;28.98;;;9.82;;
70725;SDS011;58304;53.104;6.022;2022-12-10T02:20:43;24.70;;;9.05;;
70725;SDS011;58304;53.104;6.022;2022-12-10T02:23:35;29.17;;;9.90;;
70725;SDS011;58304;53.104;6.022;2022-12-10T02:26:14;27.88;;;9.48;;
70725;SDS011;58304;53.104;6.022;2022-12-10T02:31:38;27.30;;;9.07;;
70725;SDS011;58304;53.104;6.022;2022-12-10T02:34:07;25.08;;;9.30;;
70725;SDS011;58304;53.104;6.022;2022-12-10T02:36:35;26.25;;;8.63;;
70725;SDS011;58304;53.104;6.022;2022-12-10T02:39:04;27.45;;;9.27;;
70725;SDS011;58304;53.104;6.022;2022-12-10T02:41:35;34.90;;;10.02;;
70725;SDS011;58304;53.104;6.022;2022-12-10T02:46:37;26.17;;;8.45;;
70725;SDS011;58304;53.104;6.022;2022-12-10T02:49:05;29.08;;;9.57;;
70725;SDS011;58304;53.104;6.022;2022-12-10T02:51:32;28.45;;;9.25;;
70725;SDS011;58304;53.104;6.022;2022-12-10T02:54:02;25.65;;;8.30;;
70725;SDS011;58304;53.104;6.022;2022-12-10T02:56:33;30.20;;;9.98;;
70725;SDS011;58304;53.104;6.022;2022-12-10T02:59:26;29.02;;;8.90;;
70725;SDS011;58304;53.104;6.022;2022-12-10T03:04:50;30.17;;;9.27;;
70725;SDS011;58304;53.104;6.022;2022-12-10T03:07:35;35.03;;;11.25;;
70725;SDS011;58304;53.104;6.022;2022-12-10T03:12:58;27.90;;;9.65;;
70725;SDS011;58304;53.104;6.022;2022-12-10T03:15:26;29.15;;;9.98;;
70725;SDS011;58304;53.104;6.022;2022-12-10T03:17:54;29.15;;;9.48;;
70725;SDS011;58304;53.104;6.022;2022-12-10T03:20:21;33.42;;;10.80;;
70725;SDS011;58304;53.104;6.022;2022-12-10T03:22:49;25.17;;;9.63;;
70725;SDS011;58304;53.104;6.022;2022-12-10T03:25:16;28.30;;;9.98;;
70725;SDS011;58304;53.104;6.022;2022-12-10T03:27:45;24.65;;;9.10;;
70725;SDS011;58304;53.104;6.022;2022-12-10T03:30:14;32.60;;;9.82;;
70725;SDS011;58304;53.104;6.022;2022-12-10T03:32:40;26.42;;;7.88;;
70725;SDS011;58304;53.104;6.022;2022-12-10T03:35:08;30.10;;;9.05;;
70725;SDS011;58304;53.104;6.022;2022-12-10T03:37:34;26.30;;;9.73;;
70725;SDS011;58304;53.104;6.022;2022-12-10T03:40:02;35.47;;;10.90;;
70725;SDS011;58304;53.104;6.022;2022-12-10T03:42:29;33.47;;;9.98;;
70725;SDS011;58304;53.104;6.022;2022-12-10T03:44:55;34.38;;;9.50;;
70725;SDS011;58304;53.104;6.022;2022-12-10T03:47:21;29.08;;;9.02;;
70725;SDS011;58304;53.104;6.022;2022-12-10T03:49:47;32.83;;;10.18;;
70725;SDS011;58304;53.104;6.022;2022-12-10T03:52:13;32.92;;;10.35;;
70725;SDS011;58304;53.104;6.022;2022-12-10T03:54:39;36.92;;;10.60;;
70725;SDS011;58304;53.104;6.022;2022-12-10T03:57:04;31.92;;;10.77;;
70725;SDS011;58304;53.104;6.022;2022-12-10T03:59:30;33.65;;;10.63;;
70725;SDS011;58304;53.104;6.022;2022-12-10T04:01:56;33.60;;;10.70;;
70725;SDS011;58304;53.104;6.022;2022-12-10T04:04:21;31.30;;;9.18;;
70725;SDS011;58304;53.104;6.022;2022-12-10T04:06:47;29.15;;;9.02;;
70725;SDS011;58304;53.104;6.022;2022-12-10T04:09:13;33.38;;;9.45;;
70725;SDS011;58304;53.104;6.022;2022-12-10T04:11:40;34.60;;;10.85;;
70725;SDS011;58304;53.104;6.022;2022-12-10T04:14:05;30.85;;;10.02;;
70725;SDS011;58304;53.104;6.022;2022-12-10T04:16:52;27.92;;;8.60;;
70725;SDS011;58304;53.104;6.022;2022-12-10T04:19:18;29.88;;;9.95;;
70725;SDS011;58304;53.104;6.022;2022-12-10T04:21:44;27.38;;;9.10;;
70725;SDS011;58304;53.104;6.022;2022-12-10T04:24:29;32.13;;;10.00;;
70725;SDS011;58304;53.104;6.022;2022-12-10T04:27:23;27.23;;;8.88;;
70725;SDS011;58304;53.104;6.022;2022-12-10T04:29:51;28.10;;;9.48;;
70725;SDS011;58304;53.104;6.022;2022-12-10T04:32:17;26.13;;;8.77;;
70725;SDS011;58304;53.104;6.022;2022-12-10T04:37:09;28.40;;;9.15;;
70725;SDS011;58304;53.104;6.022;2022-12-10T04:39:36;24.52;;;8.75;;
70725;SDS011;58304;53.104;6.022;2022-12-10T04:42:02;31.25;;;8.30;;
70725;SDS011;58304;53.104;6.022;2022-12-10T04:44:27;25.88;;;8.35;;
70725;SDS011;58304;53.104;6.022;2022-12-10T04:46:53;28.25;;;9.10;;
70725;SDS011;58304;53.104;6.022;2022-12-10T04:49:18;28.80;;;8.23;;
70725;SDS011;58304;53.104;6.022;2022-12-10T04:51:44;23.20;;;7.10;;
70725;SDS011;58304;53.104;6.022;2022-12-10T04:54:10;32.88;;;9.63;;
70725;SDS011;58304;53.104;6.022;2022-12-10T04:56:37;33.08;;;10.73;;
70725;SDS011;58304;53.104;6.022;2022-12-10T04:59:03;35.10;;;10.93;;
70725;SDS011;58304;53.104;6.022;2022-12-10T05:01:29;31.90;;;10.38;;
70725;SDS011;58304;53.104;6.022;2022-12-10T05:06:25;26.20;;;8.85;;
70725;SDS011;58304;53.104;6.022;2022-12-10T05:08:51;34.92;;;8.93;;
70725;SDS011;58304;53.104;6.022;2022-12-10T05:11:17;26.52;;;8.48;;
70725;SDS011;58304;53.104;6.022;2022-12-10T05:13:44;23.90;;;7.93;;
70725;SDS011;58304;53.104;6.022;2022-12-10T05:16:11;28.88;;;8.43;;
70725;SDS011;58304;53.104;6.022;2022-12-10T05:18:39;27.70;;;8.07;;
70725;SDS011;58304;53.104;6.022;2022-12-10T05:21:06;25.70;;;8.35;;
70725;SDS011;58304;53.104;6.022;2022-12-10T05:23:35;26.58;;;7.90;;
70725;SDS011;58304;53.104;6.022;2022-12-10T05:26:10;28.75;;;8.65;;
70725;SDS011;58304;53.104;6.022;2022-12-10T05:28:45;27.00;;;9.32;;
70725;SDS011;58304;53.104;6.022;2022-12-10T05:31:13;24.85;;;8.40;;
70725;SDS011;58304;53.104;6.022;2022-12-10T05:33:46;22.77;;;7.53;;
70725;SDS011;58304;53.104;6.022;2022-12-10T05:36:13;23.23;;;7.80;;
70725;SDS011;58304;53.104;6.022;2022-12-10T05:38:40;22.77;;;7.15;;
70725;SDS011;58304;53.104;6.022;2022-12-10T05:43:34;24.83;;;8.15;;
70725;SDS011;58304;53.104;6.022;2022-12-10T05:46:03;19.52;;;6.43;;
70725;SDS011;58304;53.104;6.022;2022-12-10T05:48:31;20.60;;;6.68;;
70725;SDS011;58304;53.104;6.022;2022-12-10T05:50:58;24.63;;;7.68;;
70725;SDS011;58304;53.104;6.022;2022-12-10T05:53:27;24.88;;;7.78;;
70725;SDS011;58304;53.104;6.022;2022-12-10T05:55:59;20.77;;;7.13;;
70725;SDS011;58304;53.104;6.022;2022-12-10T05:58:29;21.00;;;7.07;;
70725;SDS011;58304;53.104;6.022;2022-12-10T06:00:55;25.88;;;7.28;;
70725;SDS011;58304;53.104;6.022;2022-12-10T06:03:22;22.92;;;6.75;;
70725;SDS011;58304;53.104;6.022;2022-12-10T06:05:48;23.70;;;7.72;;
70725;SDS011;58304;53.104;6.022;2022-12-10T06:08:13;23.55;;;7.28;;
70725;SDS011;58304;53.104;6.022;2022-12-10T06:10:39;21.23;;;8.32;;
70725;SDS011;58304;53.104;6.022;2022-12-10T06:13:05;23.85;;;6.97;;
70725;SDS011;58304;53.104;6.022;2022-12-10T06:15:30;23.90;;;8.18;;
70725;SDS011;58304;53.104;6.022;2022-12-10T06:17:57;25.65;;;7.82;;
70725;SDS011;58304;53.104;6.022;2022-12-10T06:20:24;24.60;;;7.28;;
70725;SDS011;58304;53.104;6.022;2022-12-10T06:22:50;22.63;;;7.05;;
70725;SDS011;58304;53.104;6.022;2022-12-10T06:25:16;17.50;;;5.40;;
70725;SDS011;58304;53.104;6.022;2022-12-10T06:27:42;19.77;;;5.63;;
70725;SDS011;58304;53.104;6.022;2022-12-10T06:30:08;15.60;;;5.18;;
70725;SDS011;58304;53.104;6.022;2022-12-10T06:35:00;18.95;;;5.55;;
70725;SDS011;58304;53.104;6.022;2022-12-10T06:37:25;19.95;;;5.07;;
70725;SDS011;58304;53.104;6.022;2022-12-10T06:39:51;19.67;;;5.43;;
70725;SDS011;58304;53.104;6.022;2022-12-10T06:44:43;22.48;;;5.38;;
70725;SDS011;58304;53.104;6.022;2022-12-10T06:47:09;13.23;;;5.20;;
70725;SDS011;58304;53.104;6.022;2022-12-10T06:49:35;12.93;;;4.65;;
70725;SDS011;58304;53.104;6.022;2022-12-10T06:52:01;13.13;;;4.53;;
70725;SDS011;58304;53.104;6.022;2022-12-10T06:54:27;15.50;;;5.50;;
70725;SDS011;58304;53.104;6.022;2022-12-10T06:56:54;14.45;;;5.07;;
70725;SDS011;58304;53.104;6.022;2022-12-10T06:59:20;18.30;;;5.95;;
70725;SDS011;58304;53.104;6.022;2022-12-10T07:01:45;18.48;;;5.60;;
70725;SDS011;58304;53.104;6.022;2022-12-10T07:04:11;15.57;;;4.90;;
70725;SDS011;58304;53.104;6.022;2022-12-10T07:06:37;17.08;;;4.88;;
70725;SDS011;58304;53.104;6.022;2022-12-10T07:09:02;24.92;;;6.32;;
70725;SDS011;58304;53.104;6.022;2022-12-10T07:11:28;17.10;;;6.05;;
70725;SDS011;58304;53.104;6.022;2022-12-10T07:13:55;20.88;;;5.97;;
70725;SDS011;58304;53.104;6.022;2022-12-10T07:16:23;19.85;;;6.00;;
70725;SDS011;58304;53.104;6.022;2022-12-10T07:18:50;17.02;;;5.25;;
70725;SDS011;58304;53.104;6.022;2022-12-10T07:23:53;17.67;;;4.85;;
70725;SDS011;58304;53.104;6.022;2022-12-10T07:26:22;15.48;;;4.57;;
70725;SDS011;58304;53.104;6.022;2022-12-10T07:28:59;15.32;;;4.88;;
70725;SDS011;58304;53.104;6.022;2022-12-10T07:31:26;16.15;;;5.20;;
70725;SDS011;58304;53.104;6.022;2022-12-10T07:33:52;14.65;;;5.50;;
70725;SDS011;58304;53.104;6.022;2022-12-10T07:36:19;16.42;;;5.13;;
70725;SDS011;58304;53.104;6.022;2022-12-10T07:38:47;11.70;;;3.92;;
70725;SDS011;58304;53.104;6.022;2022-12-10T07:41:13;14.75;;;5.18;;
70725;SDS011;58304;53.104;6.022;2022-12-10T07:46:06;11.80;;;4.70;;
70725;SDS011;58304;53.104;6.022;2022-12-10T07:48:53;15.05;;;4.57;;
70725;SDS011;58304;53.104;6.022;2022-12-10T07:53:48;12.30;;;4.32;;
70725;SDS011;58304;53.104;6.022;2022-12-10T07:56:16;12.32;;;4.72;;
70725;SDS011;58304;53.104;6.022;2022-12-10T07:58:42;17.33;;;5.15;;
70725;SDS011;58304;53.104;6.022;2022-12-10T08:01:10;16.13;;;4.30;;
70725;SDS011;58304;53.104;6.022;2022-12-10T08:03:38;15.50;;;4.88;;
70725;SDS011;58304;53.104;6.022;2022-12-10T08:08:32;12.93;;;4.60;;
70725;SDS011;58304;53.104;6.022;2022-12-10T08:10:59;13.73;;;4.60;;
70725;SDS011;58304;53.104;6.022;2022-12-10T08:13:25;16.15;;;5.55;;
70725;SDS011;58304;53.104;6.022;2022-12-10T08:15:52;14.90;;;5.30;;
70725;SDS011;58304;53.104;6.022;2022-12-10T08:18:18;16.90;;;4.43;;
70725;SDS011;58304;53.104;6.022;2022-12-10T08:20:43;15.55;;;4.32;;
70725;SDS011;58304;53.104;6.022;2022-12-10T08:23:09;13.40;;;4.82;;
70725;SDS011;58304;53.104;6.022;2022-12-10T08:25:35;18.88;;;4.50;;
70725;SDS011;58304;53.104;6.022;2022-12-10T08:28:01;12.05;;;3.85;;
70725;SDS011;58304;53.104;6.022;2022-12-10T08:30:28;15.02;;;4.82;;
70725;SDS011;58304;53.104;6.022;2022-12-10T08:32:54;14.13;;;4.43;;
70725;SDS011;58304;53.104;6.022;2022-12-10T08:35:21;13.52;;;4.55;;
70725;SDS011;58304;53.104;6.022;2022-12-10T08:37:47;11.90;;;3.78;;
70725;SDS011;58304;53.104;6.022;2022-12-10T08:40:12;10.70;;;3.65;;
70725;SDS011;58304;53.104;6.022;2022-12-10T08:42:38;14.50;;;5.03;;
70725;SDS011;58304;53.104;6.022;2022-12-10T08:45:04;12.05;;;3.78;;
70725;SDS011;58304;53.104;6.022;2022-12-10T08:47:30;17.52;;;4.65;;
70725;SDS011;58304;53.104;6.022;2022-12-10T08:49:56;12.40;;;4.07;;
70725;SDS011;58304;53.104;6.022;2022-12-10T08:52:21;15.18;;;4.25;;
70725;SDS011;58304;53.104;6.022;2022-12-10T08:54:47;16.02;;;4.63;;
70725;SDS011;58304;53.104;6.022;2022-12-10T08:57:12;15.98;;;5.10;;
70725;SDS011;58304;53.104;6.022;2022-12-10T08:59:38;14.93;;;4.47;;
70725;SDS011;58304;53.104;6.022;2022-12-10T09:02:04;12.93;;;4.45;;
70725;SDS011;58304;53.104;6.022;2022-12-10T09:04:29;12.35;;;4.65;;
70725;SDS011;58304;53.104;6.022;2022-12-10T09:06:55;16.52;;;4.32;;
70725;SDS011;58304;53.104;6.022;2022-12-10T09:09:20;17.40;;;4.95;;
70725;SDS011;58304;53.104;6.022;2022-12-10T09:11:46;19.85;;;4.55;;
70725;SDS011;58304;53.104;6.022;2022-12-10T09:14:12;15.35;;;4.47;;
70725;SDS011;58304;53.104;6.022;2022-12-10T09:19:07;14.23;;;4.18;;
70725;SDS011;58304;53.104;6.022;2022-12-10T09:21:32;12.73;;;4.20;;
70725;SDS011;58304;53.104;6.022;2022-12-10T09:23:58;14.23;;;4.68;;
70725;SDS011;58304;53.104;6.022;2022-12-10T09:26:24;13.73;;;3.85;;
70725;SDS011;58304;53.104;6.022;2022-12-10T09:28:50;10.75;;;3.80;;
70725;SDS011;58304;53.104;6.022;2022-12-10T09:31:16;14.75;;;4.20;;
70725;SDS011;58304;53.104;6.022;2022-12-10T09:33:44;15.38;;;4.75;;
70725;SDS011;58304;53.104;6.022;2022-12-10T09:36:10;14.43;;;4.53;;
70725;SDS011;58304;53.104;6.022;2022-12-10T09:38:37;13.32;;;4.78;;
70725;SDS011;58304;53.104;6.022;2022-12-10T09:41:07;10.93;;;4.07;;
70725;SDS011;58304;53.104;6.022;2022-12-10T09:43:52;16.67;;;5.53;;
70725;SDS011;58304;53.104;6.022;2022-12-10T09:46:31;16.63;;;5.53;;
70725;SDS011;58304;53.104;6.022;2022-12-10T09:52:02;13.23;;;4.53;;
70725;SDS011;58304;53.104;6.022;2022-12-10T09:54:35;12.57;;;4.18;;
70725;SDS011;58304;53.104;6.022;2022-12-10T09:57:06;17.85;;;5.72;;
70725;SDS011;58304;53.104;6.022;2022-12-10T10:04:55;14.35;;;4.55;;
70725;SDS011;58304;53.104;6.022;2022-12-10T10:07:24;12.27;;;4.68;;
70725;SDS011;58304;53.104;6.022;2022-12-10T10:09:55;14.80;;;5.50;;
70725;SDS011;58304;53.104;6.022;2022-12-10T10:12:25;15.68;;;4.90;;
70725;SDS011;58304;53.104;6.022;2022-12-10T10:14:53;14.63;;;4.65;;
70725;SDS011;58304;53.104;6.022;2022-12-10T10:17:19;13.40;;;5.10;;
70725;SDS011;58304;53.104;6.022;2022-12-10T10:20:14;12.43;;;4.28;;
70725;SDS011;58304;53.104;6.022;2022-12-10T10:25:12;15.48;;;4.70;;
70725;SDS011;58304;53.104;6.022;2022-12-10T10:27:42;16.80;;;4.85;;
70725;SDS011;58304;53.104;6.022;2022-12-10T10:35:18;20.05;;;5.70;;
70725;SDS011;58304;53.104;6.022;2022-12-10T10:37:48;14.32;;;5.55;;
70725;SDS011;58304;53.104;6.022;2022-12-10T10:40:22;16.15;;;5.38;;
70725;SDS011;58304;53.104;6.022;2022-12-10T10:43:12;18.38;;;5.65;;
70725;SDS011;58304;53.104;6.022;2022-12-10T10:48:18;13.45;;;5.07;;
70725;SDS011;58304;53.104;6.022;2022-12-10T10:53:46;17.15;;;4.97;;
70725;SDS011;58304;53.104;6.022;2022-12-10T10:56:27;16.42;;;5.18;;
70725;SDS011;58304;53.104;6.022;2022-12-10T10:58:58;17.77;;;5.65;;
70725;SDS011;58304;53.104;6.022;2022-12-10T11:07:14;14.88;;;5.03;;
70725;SDS011;58304;53.104;6.022;2022-12-10T11:09:45;13.73;;;4.18;;
70725;SDS011;58304;53.104;6.022;2022-12-10T11:12:34;16.58;;;4.95;;
70725;SDS011;58304;53.104;6.022;2022-12-10T11:15:03;17.52;;;5.20;;
70725;SDS011;58304;53.104;6.022;2022-12-10T11:17:48;14.43;;;5.43;;
70725;SDS011;58304;53.104;6.022;2022-12-10T11:28:00;19.23;;;4.82;;
70725;SDS011;58304;53.104;6.022;2022-12-10T11:30:51;15.55;;;5.97;;
70725;SDS011;58304;53.104;6.022;2022-12-10T11:34:00;17.45;;;5.55;;
70725;SDS011;58304;53.104;6.022;2022-12-10T11:36:48;16.80;;;5.93;;
70725;SDS011;58304;53.104;6.022;2022-12-10T11:42:27;13.00;;;5.03;;
70725;SDS011;58304;53.104;6.022;2022-12-10T11:44:58;12.65;;;4.20;;
70725;SDS011;58304;53.104;6.022;2022-12-10T11:47:58;15.85;;;5.15;;
70725;SDS011;58304;53.104;6.022;2022-12-10T11:53:25;14.63;;;5.55;;
70725;SDS011;58304;53.104;6.022;2022-12-10T11:58:57;19.33;;;5.65;;
70725;SDS011;58304;53.104;6.022;2022-12-10T12:16:15;24.50;;;6.78;;
70725;SDS011;58304;53.104;6.022;2022-12-10T12:18:51;17.05;;;5.95;;
70725;SDS011;58304;53.104;6.022;2022-12-10T12:21:22;20.85;;;6.35;;
70725;SDS011;58304;53.104;6.022;2022-12-10T12:26:15;16.90;;;5.95;;
70725;SDS011;58304;53.104;6.022;2022-12-10T12:29:05;17.88;;;5.90;;
70725;SDS011;58304;53.104;6.022;2022-12-10T12:31:54;21.38;;;6.75;;
70725;SDS011;58304;53.104;6.022;2022-12-10T12:34:25;16.05;;;5.57;;
70725;SDS011;58304;53.104;6.022;2022-12-10T12:36:57;19.00;;;6.28;;
70725;SDS011;58304;53.104;6.022;2022-12-10T12:44:32;17.17;;;6.07;;
70725;SDS011;58304;53.104;6.022;2022-12-10T12:49:57;19.42;;;6.30;;
70725;SDS011;58304;53.104;6.022;2022-12-10T12:52:30;20.83;;;5.93;;
70725;SDS011;58304;53.104;6.022;2022-12-10T12:55:16;17.08;;;5.50;;
70725;SDS011;58304;53.104;6.022;2022-12-10T12:57:49;18.90;;;5.65;;
70725;SDS011;58304;53.104;6.022;2022-12-10T13:00:39;15.23;;;5.05;;
70725;SDS011;58304;53.104;6.022;2022-12-10T13:11:39;22.67;;;5.95;;
70725;SDS011;58304;53.104;6.022;2022-12-10T13:14:32;18.83;;;6.45;;
70725;SDS011;58304;53.104;6.022;2022-12-10T13:17:30;21.45;;;7.00;;
70725;SDS011;58304;53.104;6.022;2022-12-10T13:22:54;25.67;;;7.63;;
70725;SDS011;58304;53.104;6.022;2022-12-10T13:25:41;17.63;;;6.50;;
70725;SDS011;58304;53.104;6.022;2022-12-10T13:36:28;20.10;;;6.50;;
70725;SDS011;58304;53.104;6.022;2022-12-10T13:39:22;17.52;;;5.95;;
70725;SDS011;58304;53.104;6.022;2022-12-10T13:45:01;20.15;;;6.18;;
70725;SDS011;58304;53.104;6.022;2022-12-10T13:50:33;21.08;;;6.88;;
70725;SDS011;58304;53.104;6.022;2022-12-10T13:53:16;23.52;;;7.13;;
70725;SDS011;58304;53.104;6.022;2022-12-10T14:06:39;22.48;;;6.35;;
70725;SDS011;58304;53.104;6.022;2022-12-10T14:11:54;20.38;;;6.45;;
70725;SDS011;58304;53.104;6.022;2022-12-10T14:14:30;22.77;;;6.93;;
70725;SDS011;58304;53.104;6.022;2022-12-10T14:17:06;19.58;;;6.32;;
70725;SDS011;58304;53.104;6.022;2022-12-10T14:19:37;16.98;;;5.53;;
70725;SDS011;58304;53.104;6.022;2022-12-10T14:22:05;22.08;;;6.32;;
70725;SDS011;58304;53.104;6.022;2022-12-10T14:24:36;24.70;;;6.90;;
70725;SDS011;58304;53.104;6.022;2022-12-10T14:29:43;19.25;;;6.00;;
70725;SDS011;58304;53.104;6.022;2022-12-10T14:32:12;19.48;;;6.53;;
70725;SDS011;58304;53.104;6.022;2022-12-10T14:34:40;21.17;;;6.30;;
70725;SDS011;58304;53.104;6.022;2022-12-10T14:37:06;20.60;;;6.25;;
70725;SDS011;58304;53.104;6.022;2022-12-10T14:39:38;23.05;;;6.00;;
70725;SDS011;58304;53.104;6.022;2022-12-10T14:42:05;20.25;;;7.20;;
70725;SDS011;58304;53.104;6.022;2022-12-10T14:44:33;21.83;;;7.45;;
70725;SDS011;58304;53.104;6.022;2022-12-10T14:47:18;17.13;;;6.22;;
70725;SDS011;58304;53.104;6.022;2022-12-10T14:49:49;23.40;;;7.35;;
70725;SDS011;58304;53.104;6.022;2022-12-10T14:52:20;19.63;;;6.22;;
70725;SDS011;58304;53.104;6.022;2022-12-10T14:54:50;14.55;;;5.53;;
70725;SDS011;58304;53.104;6.022;2022-12-10T14:57:24;18.45;;;5.72;;
70725;SDS011;58304;53.104;6.022;2022-12-10T14:59:57;16.88;;;5.68;;
70725;SDS011;58304;53.104;6.022;2022-12-10T15:02:29;20.27;;;6.93;;
70725;SDS011;58304;53.104;6.022;2022-12-10T15:04:58;18.98;;;5.95;;
70725;SDS011;58304;53.104;6.022;2022-12-10T15:07:30;18.33;;;6.13;;
70725;SDS011;58304;53.104;6.022;2022-12-10T15:09:59;19.63;;;6.32;;
70725;SDS011;58304;53.104;6.022;2022-12-10T15:12:28;20.08;;;5.88;;
70725;SDS011;58304;53.104;6.022;2022-12-10T15:15:10;19.50;;;6.32;;
70725;SDS011;58304;53.104;6.022;2022-12-10T15:20:49;24.77;;;6.95;;
70725;SDS011;58304;53.104;6.022;2022-12-10T15:23:18;19.40;;;6.78;;
70725;SDS011;58304;53.104;6.022;2022-12-10T15:26:03;38.15;;;10.85;;
70725;SDS011;58304;53.104;6.022;2022-12-10T15:28:39;22.13;;;6.70;;
70725;SDS011;58304;53.104;6.022;2022-12-10T15:33:57;21.50;;;6.45;;
70725;SDS011;58304;53.104;6.022;2022-12-10T15:39:19;19.90;;;6.70;;
70725;SDS011;58304;53.104;6.022;2022-12-10T15:41:48;17.70;;;5.82;;
70725;SDS011;58304;53.104;6.022;2022-12-10T15:47:05;21.75;;;6.57;;
70725;SDS011;58304;53.104;6.022;2022-12-10T15:49:48;20.15;;;6.88;;
70725;SDS011;58304;53.104;6.022;2022-12-10T15:52:16;16.83;;;6.63;;
70725;SDS011;58304;53.104;6.022;2022-12-10T15:54:44;18.30;;;5.78;;
70725;SDS011;58304;53.104;6.022;2022-12-10T15:59:47;18.42;;;5.60;;
70725;SDS011;58304;53.104;6.022;2022-12-10T16:04:40;18.60;;;5.57;;
70725;SDS011;58304;53.104;6.022;2022-12-10T16:07:07;21.55;;;6.22;;
70725;SDS011;58304;53.104;6.022;2022-12-10T16:09:33;17.75;;;6.28;;
70725;SDS011;58304;53.104;6.022;2022-12-10T16:11:58;24.45;;;5.70;;
70725;SDS011;58304;53.104;6.022;2022-12-10T16:14:24;20.50;;;6.60;;
70725;SDS011;58304;53.104;6.022;2022-12-10T16:16:49;16.30;;;5.57;;
70725;SDS011;58304;53.104;6.022;2022-12-10T16:19:15;17.00;;;5.40;;
70725;SDS011;58304;53.104;6.022;2022-12-10T16:21:41;15.13;;;4.80;;
70725;SDS011;58304;53.104;6.022;2022-12-10T16:24:08;15.80;;;5.55;;
70725;SDS011;58304;53.104;6.022;2022-12-10T16:26:33;12.32;;;4.90;;
70725;SDS011;58304;53.104;6.022;2022-12-10T16:28:59;18.38;;;5.85;;
70725;SDS011;58304;53.104;6.022;2022-12-10T16:31:25;18.90;;;5.82;;
70725;SDS011;58304;53.104;6.022;2022-12-10T16:33:50;19.27;;;6.07;;
70725;SDS011;58304;53.104;6.022;2022-12-10T16:36:17;18.98;;;6.18;;
70725;SDS011;58304;53.104;6.022;2022-12-10T16:38:43;22.45;;;6.18;;
70725;SDS011;58304;53.104;6.022;2022-12-10T16:41:16;18.92;;;6.20;;
70725;SDS011;58304;53.104;6.022;2022-12-10T16:43:44;17.67;;;5.73;;
70725;SDS011;58304;53.104;6.022;2022-12-10T16:46:12;19.60;;;5.85;;
70725;SDS011;58304;53.104;6.022;2022-12-10T16:48:38;22.55;;;5.22;;
70725;SDS011;58304;53.104;6.022;2022-12-10T16:51:05;18.95;;;5.80;;
70725;SDS011;58304;53.104;6.022;2022-12-10T16:53:39;18.25;;;5.88;;
70725;SDS011;58304;53.104;6.022;2022-12-10T16:56:06;18.77;;;4.47;;
70725;SDS011;58304;53.104;6.022;2022-12-10T16:58:35;14.32;;;4.40;;
70725;SDS011;58304;53.104;6.022;2022-12-10T17:01:00;13.88;;;4.95;;
70725;SDS011;58304;53.104;6.022;2022-12-10T17:03:26;14.48;;;5.30;;
70725;SDS011;58304;53.104;6.022;2022-12-10T17:06:00;15.80;;;5.60;;
70725;SDS011;58304;53.104;6.022;2022-12-10T17:08:28;17.75;;;5.00;;
70725;SDS011;58304;53.104;6.022;2022-12-10T17:10:54;12.70;;;4.35;;
70725;SDS011;58304;53.104;6.022;2022-12-10T17:13:39;14.95;;;4.78;;
70725;SDS011;58304;53.104;6.022;2022-12-10T17:16:08;17.75;;;5.55;;
70725;SDS011;58304;53.104;6.022;2022-12-10T17:18:37;14.00;;;5.00;;
70725;SDS011;58304;53.104;6.022;2022-12-10T17:21:02;14.68;;;4.78;;
70725;SDS011;58304;53.104;6.022;2022-12-10T17:23:28;15.70;;;5.22;;
70725;SDS011;58304;53.104;6.022;2022-12-10T17:25:54;13.98;;;4.80;;
70725;SDS011;58304;53.104;6.022;2022-12-10T17:28:20;15.18;;;4.80;;
70725;SDS011;58304;53.104;6.022;2022-12-10T17:30:47;15.32;;;4.78;;
70725;SDS011;58304;53.104;6.022;2022-12-10T17:33:14;13.13;;;4.20;;
70725;SDS011;58304;53.104;6.022;2022-12-10T17:35:41;11.70;;;4.05;;
70725;SDS011;58304;53.104;6.022;2022-12-10T17:38:15;13.73;;;4.03;;
70725;SDS011;58304;53.104;6.022;2022-12-10T17:40:50;14.70;;;4.30;;
70725;SDS011;58304;53.104;6.022;2022-12-10T17:43:16;12.35;;;4.07;;